Time;durP1;ratioP1;P1;durP2;ratioP2;P2;SDS_P1;SDS_P2;PMS_P1;PMS_P2;Temp;Humidity;BMP_temperature;BMP_pressure;BME280_temperature;BME280_humidity;BME280_pressure;Samples;Min_cycle;Max_cycle;Signal;HPM_P1;HPM_P2
2022/09/19 00:01:15;;;;;;;0.68;0.30;;;10.60;99.90;;;;;;6059136;23;20430;-77
2022/09/19 00:03:46;;;;;;;0.85;0.50;;;10.50;99.90;;;;;;6082109;23;20109;-77
2022/09/19 00:06:14;;;;;;;0.57;0.45;;;10.50;99.90;;;;;;6082709;23;20022;-77
2022/09/19 00:08:42;;;;;;;0.85;0.55;;;10.50;99.90;;;;;;6082813;23;20087;-77
2022/09/19 00:11:11;;;;;;;1.08;0.57;;;10.50;99.90;;;;;;6059125;23;20256;-78
2022/09/19 00:13:41;;;;;;;0.68;0.50;;;10.50;99.90;;;;;;6082353;23;20032;-78
2022/09/19 00:16:08;;;;;;;1.00;0.60;;;10.40;99.90;;;;;;6059321;23;20396;-78
2022/09/19 00:18:34;;;;;;;0.90;0.57;;;10.30;99.90;;;;;;6059013;23;20042;-79
2022/09/19 00:21:01;;;;;;;0.75;0.50;;;10.20;99.90;;;;;;6057993;23;20029;-76
2022/09/19 00:26:17;;;;;;;0.70;0.43;;;10.20;99.90;;;;;;6082929;23;20019;-75
2022/09/19 00:28:45;;;;;;;1.00;0.50;;;10.10;99.90;;;;;;6082819;23;20034;-77
2022/09/19 00:31:17;;;;;;;0.63;0.50;;;10.10;99.90;;;;;;6058073;23;20033;-77
2022/09/19 00:33:46;;;;;;;0.60;0.50;;;10.00;99.90;;;;;;6082074;23;20018;-77
2022/09/19 00:36:13;;;;;;;0.80;0.65;;;10.10;99.90;;;;;;6081045;23;20033;-77
2022/09/19 00:38:40;;;;;;;1.23;0.60;;;10.10;99.90;;;;;;6057960;23;20036;-76
2022/09/19 00:41:07;;;;;;;1.23;0.80;;;10.10;99.90;;;;;;6082138;23;20412;-77
2022/09/19 00:43:46;;;;;;;0.70;0.45;;;10.20;99.90;;;;;;6084081;23;20037;-77
2022/09/19 00:46:13;;;;;;;1.30;0.70;;;10.20;99.90;;;;;;6083550;23;20076;-77
2022/09/19 00:48:41;;;;;;;1.25;0.70;;;10.30;99.90;;;;;;6058203;23;20028;-77
2022/09/19 00:51:13;;;;;;;0.50;0.50;;;10.30;99.90;;;;;;6081931;23;20034;-77
2022/09/19 00:53:40;;;;;;;1.75;0.63;;;10.30;99.90;;;;;;6057783;23;20128;-77
2022/09/19 00:56:06;;;;;;;0.70;0.65;;;10.40;99.90;;;;;;6082838;23;20026;-76
2022/09/19 00:58:34;;;;;;;0.63;0.50;;;10.30;99.90;;;;;;6082435;23;20336;-77
2022/09/19 01:01:01;;;;;;;0.52;0.40;;;10.30;99.90;;;;;;6082674;23;20109;-77
2022/09/19 01:03:28;;;;;;;1.33;0.80;;;10.30;99.90;;;;;;6081483;23;20618;-76
2022/09/19 01:06:35;;;;;;;1.63;0.60;;;10.30;99.90;;;;;;6080991;23;20085;-77
2022/09/19 01:09:18;;;;;;;0.55;0.40;;;10.30;99.90;;;;;;6083648;23;20502;-76
2022/09/19 01:12:01;;;;;;;0.22;0.22;;;10.30;99.90;;;;;;6082227;23;20085;-76
2022/09/19 01:14:59;;;;;;;0.88;0.52;;;10.30;99.90;;;;;;6084249;23;20189;-76
2022/09/19 01:17:42;;;;;;;1.10;0.60;;;10.30;99.90;;;;;;6082446;23;20097;-76
2022/09/19 01:20:50;;;;;;;0.52;0.40;;;10.30;99.90;;;;;;6058268;23;20022;-77
2022/09/19 01:23:36;;;;;;;0.77;0.47;;;10.40;99.90;;;;;;6081792;23;20350;-76
2022/09/19 01:26:22;;;;;;;0.90;0.50;;;10.40;99.90;;;;;;6083853;23;20337;-77
2022/09/19 01:29:02;;;;;;;1.23;0.57;;;10.50;99.90;;;;;;6082420;23;20044;-77
2022/09/19 01:31:30;;;;;;;0.75;0.30;;;10.50;99.90;;;;;;6058247;23;20023;-76
2022/09/19 01:34:19;;;;;;;0.47;0.47;;;10.50;99.90;;;;;;6058490;23;20026;-76
2022/09/19 01:37:13;;;;;;;0.82;0.40;;;10.60;99.90;;;;;;6083874;23;20033;-77
2022/09/19 01:39:42;;;;;;;1.38;0.40;;;10.60;99.90;;;;;;6060702;23;20026;-77
2022/09/19 01:42:12;;;;;;;1.17;0.47;;;10.70;99.90;;;;;;6084188;23;20022;-76
2022/09/19 01:44:38;;;;;;;1.17;0.50;;;10.70;99.90;;;;;;6086976;23;20022;-76
2022/09/19 01:47:13;;;;;;;0.65;0.50;;;10.60;99.90;;;;;;6059680;23;20032;-77
2022/09/19 01:49:49;;;;;;;0.35;0.25;;;10.60;99.90;;;;;;6084706;23;20446;-77
2022/09/19 01:53:01;;;;;;;0.60;0.50;;;10.50;99.90;;;;;;6083372;23;20028;-77
2022/09/19 01:55:49;;;;;;;0.65;0.50;;;10.50;99.90;;;;;;6068056;23;20044;-76
2022/09/19 01:58:42;;;;;;;0.70;0.43;;;10.40;99.90;;;;;;6084807;23;20166;-77
2022/09/19 02:01:14;;;;;;;0.37;0.30;;;10.40;99.90;;;;;;6083746;23;20486;-76
2022/09/19 02:04:23;;;;;;;0.57;0.50;;;10.40;99.90;;;;;;6059992;23;20113;-76
2022/09/19 02:07:13;;;;;;;0.52;0.38;;;10.40;99.90;;;;;;6029192;23;20324;-76
2022/09/19 02:09:42;;;;;;;0.40;0.40;;;10.40;99.90;;;;;;6082707;23;20529;-77
2022/09/19 02:12:10;;;;;;;0.75;0.45;;;10.40;99.90;;;;;;6060466;23;20029;-77
2022/09/19 02:14:37;;;;;;;1.23;0.60;;;10.40;99.90;;;;;;6084331;23;20098;-76
2022/09/19 02:17:13;;;;;;;0.50;0.50;;;10.40;99.90;;;;;;6083471;23;20022;-76
2022/09/19 02:19:45;;;;;;;0.63;0.60;;;10.40;99.90;;;;;;6084306;23;20033;-77
2022/09/19 02:22:20;;;;;;;1.10;0.65;;;10.40;99.90;;;;;;6083080;23;20094;-76
2022/09/19 02:24:47;;;;;;;0.55;0.40;;;10.40;99.90;;;;;;6084319;23;20018;-76
2022/09/19 02:27:20;;;;;;;0.60;0.40;;;10.50;99.90;;;;;;6057500;23;20097;-76
2022/09/19 02:29:52;;;;;;;0.70;0.57;;;10.50;99.90;;;;;;6077615;23;20031;-76
2022/09/19 02:32:20;;;;;;;0.60;0.40;;;10.60;99.90;;;;;;6077217;23;20037;-75
2022/09/19 02:34:48;;;;;;;1.15;0.73;;;10.60;99.90;;;;;;6077504;23;20031;-76
2022/09/19 02:37:21;;;;;;;1.23;0.60;;;10.60;99.90;;;;;;6076933;23;20101;-77
2022/09/19 02:39:50;;;;;;;0.63;0.60;;;10.70;99.90;;;;;;6077104;23;20018;-77
2022/09/19 02:42:33;;;;;;;0.98;0.60;;;10.70;99.90;;;;;;6053652;23;20026;-77
2022/09/19 02:45:11;;;;;;;0.98;0.60;;;10.80;99.90;;;;;;6054120;23;20026;-78
2022/09/19 02:47:42;;;;;;;0.30;0.30;;;10.80;99.90;;;;;;6077031;23;20069;-77
2022/09/19 02:50:24;;;;;;;1.00;0.70;;;10.80;99.90;;;;;;6076884;23;20030;-77
2022/09/19 02:52:51;;;;;;;1.02;0.50;;;10.80;99.90;;;;;;6050066;23;20034;-76
2022/09/19 02:55:25;;;;;;;0.82;0.40;;;10.80;99.90;;;;;;6052012;23;20523;-77
2022/09/19 02:57:54;;;;;;;0.65;0.45;;;10.90;99.90;;;;;;6052539;23;20042;-77
2022/09/19 03:00:21;;;;;;;0.50;0.50;;;10.90;99.90;;;;;;6079858;23;20033;-77
2022/09/19 03:02:57;;;;;;;0.52;0.50;;;10.90;99.90;;;;;;6079240;23;20029;-77
2022/09/19 03:05:26;;;;;;;1.20;0.70;;;10.90;99.90;;;;;;6078880;23;20036;-77
2022/09/19 03:07:59;;;;;;;0.73;0.40;;;10.90;99.90;;;;;;6078238;23;20022;-76
2022/09/19 03:10:29;;;;;;;0.75;0.40;;;11.00;99.90;;;;;;6055933;23;20030;-77
2022/09/19 03:13:01;;;;;;;0.30;0.30;;;11.00;99.90;;;;;;6079906;23;20077;-77
2022/09/19 03:15:32;;;;;;;0.82;0.50;;;11.00;99.90;;;;;;6081524;23;20033;-76
2022/09/19 03:18:01;;;;;;;0.80;0.55;;;11.00;99.90;;;;;;6055727;23;20110;-76
2022/09/19 03:20:28;;;;;;;0.60;0.45;;;11.10;99.90;;;;;;6080196;23;20408;-76
2022/09/19 03:22:55;;;;;;;0.60;0.60;;;11.10;99.90;;;;;;6057180;23;20097;-76
2022/09/19 03:25:21;;;;;;;0.98;0.40;;;11.10;99.90;;;;;;6082027;23;20033;-77
2022/09/19 03:27:49;;;;;;;0.70;0.43;;;11.20;99.90;;;;;;6080648;23;20030;-76
2022/09/19 03:30:15;;;;;;;0.43;0.30;;;11.20;99.90;;;;;;6081830;23;20445;-76
2022/09/19 03:32:45;;;;;;;0.80;0.63;;;11.10;99.90;;;;;;6082743;23;20089;-77
2022/09/19 03:35:14;;;;;;;0.50;0.40;;;11.20;99.90;;;;;;6080783;23;20037;-77
2022/09/19 03:37:41;;;;;;;0.60;0.30;;;11.20;99.90;;;;;;6080366;23;20056;-76
2022/09/19 03:40:08;;;;;;;0.60;0.50;;;11.20;99.90;;;;;;6056694;23;20041;-77
2022/09/19 03:42:36;;;;;;;0.40;0.20;;;11.10;99.90;;;;;;6057718;23;20022;-77
2022/09/19 03:45:06;;;;;;;0.65;0.45;;;11.20;99.90;;;;;;6082219;23;20027;-76
2022/09/19 03:47:33;;;;;;;0.40;0.40;;;11.20;99.90;;;;;;6080809;23;20063;-77
2022/09/19 03:50:00;;;;;;;0.73;0.40;;;11.20;99.90;;;;;;6081265;23;20030;-76
2022/09/19 03:52:27;;;;;;;0.30;0.30;;;11.20;99.90;;;;;;6055428;23;20040;-77
2022/09/19 03:54:54;;;;;;;0.68;0.45;;;11.20;99.90;;;;;;6081724;23;20028;-77
2022/09/19 03:57:21;;;;;;;0.60;0.40;;;11.20;99.90;;;;;;6080442;23;20030;-76
2022/09/19 03:59:47;;;;;;;1.70;0.68;;;11.20;99.90;;;;;;6083211;23;20452;-77
2022/09/19 04:02:14;;;;;;;0.75;0.40;;;11.20;99.90;;;;;;6056149;23;20026;-77
2022/09/19 04:04:41;;;;;;;0.40;0.40;;;11.30;99.90;;;;;;6080640;23;20506;-76
2022/09/19 04:07:08;;;;;;;0.40;0.35;;;11.30;99.90;;;;;;6057640;23;20247;-76
2022/09/19 04:09:35;;;;;;;0.40;0.40;;;11.30;99.90;;;;;;6081316;23;20779;-76
2022/09/19 04:12:03;;;;;;;0.40;0.40;;;11.40;99.90;;;;;;6079186;23;20298;-76
2022/09/19 04:14:32;;;;;;;0.73;0.40;;;11.40;99.90;;;;;;6082055;23;20125;-76
2022/09/19 04:17:00;;;;;;;0.47;0.40;;;11.30;99.90;;;;;;6078293;23;20069;-76
2022/09/19 04:19:52;;;;;;;0.30;0.30;;;11.40;99.90;;;;;;6079872;23;20040;-76
2022/09/19 04:22:21;;;;;;;0.85;0.35;;;11.40;99.90;;;;;;6078706;23;20041;-78
2022/09/19 04:24:49;;;;;;;0.55;0.40;;;11.40;99.90;;;;;;6074041;23;20494;-77
2022/09/19 04:27:15;;;;;;;0.35;0.30;;;11.40;99.90;;;;;;6078626;23;20027;-77
2022/09/19 04:29:47;;;;;;;0.68;0.47;;;11.40;99.90;;;;;;6056331;23;20053;-77
2022/09/19 04:32:15;;;;;;;0.93;0.40;;;11.40;99.90;;;;;;6078666;23;20042;-77
2022/09/19 04:34:43;;;;;;;0.90;0.60;;;11.40;99.90;;;;;;6079577;23;20701;-77
2022/09/19 04:37:10;;;;;;;0.55;0.40;;;11.40;99.90;;;;;;6077005;23;20026;-77
2022/09/19 04:39:37;;;;;;;0.73;0.50;;;11.40;99.90;;;;;;6079619;23;20378;-77
2022/09/19 04:42:04;;;;;;;1.52;0.55;;;11.40;99.90;;;;;;6077949;23;20094;-76
2022/09/19 04:44:31;;;;;;;1.92;0.90;;;11.50;99.90;;;;;;6080295;23;20106;-76
2022/09/19 04:46:58;;;;;;;1.75;0.60;;;11.50;99.90;;;;;;6077387;23;20086;-76
2022/09/19 04:49:32;;;;;;;0.60;0.40;;;11.50;99.90;;;;;;6054300;23;20022;-76
2022/09/19 04:51:59;;;;;;;1.05;0.52;;;11.60;99.90;;;;;;6077263;23;20110;-76
2022/09/19 04:54:26;;;;;;;0.50;0.50;;;11.60;99.90;;;;;;6080589;23;20023;-76
2022/09/19 04:56:53;;;;;;;0.70;0.52;;;11.60;99.90;;;;;;6079786;23;20211;-76
2022/09/19 04:59:19;;;;;;;0.57;0.40;;;11.60;99.90;;;;;;6081483;23;20022;-75
2022/09/19 05:01:46;;;;;;;0.60;0.40;;;11.60;99.90;;;;;;6079856;23;20037;-76
2022/09/19 05:04:15;;;;;;;0.80;0.50;;;11.60;99.90;;;;;;6102901;23;20092;-76
2022/09/19 05:06:41;;;;;;;0.73;0.50;;;11.70;99.90;;;;;;6108539;23;20109;-76
2022/09/19 05:09:10;;;;;;;0.40;0.30;;;11.70;99.90;;;;;;6084763;23;20037;-76
2022/09/19 05:11:46;;;;;;;0.77;0.50;;;11.70;99.90;;;;;;6083990;23;20032;-76
2022/09/19 05:14:14;;;;;;;0.55;0.30;;;11.70;99.90;;;;;;6110641;23;20046;-76
2022/09/19 05:16:41;;;;;;;0.47;0.40;;;11.70;99.90;;;;;;6082676;23;20105;-76
2022/09/19 05:19:08;;;;;;;0.55;0.43;;;11.70;99.90;;;;;;6083377;23;20021;-75
2022/09/19 05:21:36;;;;;;;0.60;0.40;;;11.70;99.90;;;;;;6083207;23;20068;-75
2022/09/19 05:24:03;;;;;;;0.50;0.40;;;11.70;99.90;;;;;;6060070;23;20033;-76
2022/09/19 05:26:30;;;;;;;0.38;0.30;;;11.70;99.90;;;;;;6106672;23;20563;-76
2022/09/19 05:28:57;;;;;;;0.32;0.30;;;11.70;99.90;;;;;;6083067;23;20018;-76
2022/09/19 05:31:25;;;;;;;0.68;0.50;;;11.70;99.90;;;;;;6108991;23;20037;-76
2022/09/19 05:33:51;;;;;;;0.32;0.30;;;11.80;99.90;;;;;;6109591;23;20029;-76
2022/09/19 05:36:20;;;;;;;0.50;0.40;;;11.70;99.90;;;;;;6109251;23;20041;-76
2022/09/19 05:38:48;;;;;;;0.75;0.45;;;11.70;99.90;;;;;;6109615;23;20022;-76
2022/09/19 05:41:16;;;;;;;0.80;0.40;;;11.80;99.90;;;;;;6108655;23;20033;-76
2022/09/19 05:43:43;;;;;;;0.52;0.32;;;11.80;99.90;;;;;;6109327;23;20275;-76
2022/09/19 05:46:10;;;;;;;0.30;0.30;;;11.80;99.90;;;;;;6109304;23;20116;-76
2022/09/19 05:48:37;;;;;;;0.40;0.40;;;11.80;99.90;;;;;;6108460;23;20026;-76
2022/09/19 05:51:04;;;;;;;0.47;0.38;;;11.80;99.90;;;;;;6083302;23;20113;-78
2022/09/19 05:56:17;;;;;;;0.63;0.40;;;11.80;99.90;;;;;;6109675;23;20030;-76
2022/09/19 05:58:43;;;;;;;1.00;0.40;;;11.80;99.90;;;;;;6109920;23;20049;-76
2022/09/19 06:01:11;;;;;;;0.30;0.30;;;11.90;99.90;;;;;;6084398;23;20029;-75
2022/09/19 06:03:38;;;;;;;0.68;0.32;;;11.90;99.90;;;;;;6082494;23;20030;-77
2022/09/19 06:06:11;;;;;;;0.80;0.40;;;11.90;99.90;;;;;;6083267;23;20026;-78
2022/09/19 06:08:42;;;;;;;0.57;0.37;;;11.90;99.90;;;;;;6083680;23;20018;-77
2022/09/19 06:11:09;;;;;;;0.40;0.20;;;12.00;99.90;;;;;;6083403;23;20274;-77
2022/09/19 06:16:20;;;;;;;1.13;0.40;;;12.10;99.90;;;;;;6108166;23;20029;-76
2022/09/19 06:18:47;;;;;;;0.85;0.50;;;12.10;99.90;;;;;;6083668;23;20030;-78
2022/09/19 06:21:14;;;;;;;0.77;0.50;;;12.20;99.90;;;;;;6108668;23;20032;-77
2022/09/19 06:23:41;;;;;;;1.85;0.63;;;12.20;99.90;;;;;;6059279;23;20023;-77
2022/09/19 06:26:09;;;;;;;0.38;0.28;;;12.20;99.90;;;;;;6083746;23;20109;-77
2022/09/19 06:28:35;;;;;;;0.55;0.47;;;12.20;99.90;;;;;;6083019;23;20056;-77
2022/09/19 06:31:03;;;;;;;0.35;0.35;;;12.20;99.90;;;;;;6109174;23;20022;-77
2022/09/19 06:33:30;;;;;;;0.40;0.30;;;12.20;99.90;;;;;;6082762;23;20057;-77
2022/09/19 06:35:59;;;;;;;0.50;0.38;;;12.20;99.90;;;;;;6082187;23;20022;-77
2022/09/19 06:38:31;;;;;;;0.40;0.40;;;12.10;99.90;;;;;;6083642;23;20121;-77
2022/09/19 06:40:58;;;;;;;0.25;0.25;;;12.20;99.90;;;;;;6083150;23;20026;-77
2022/09/19 06:43:26;;;;;;;1.48;0.40;;;12.30;99.90;;;;;;6110054;23;20018;-77
2022/09/19 06:45:55;;;;;;;0.90;0.52;;;12.30;99.90;;;;;;6109178;23;20061;-77
2022/09/19 06:48:22;;;;;;;0.43;0.30;;;12.40;99.90;;;;;;6082710;23;20121;-78
2022/09/19 06:50:49;;;;;;;1.30;0.40;;;12.50;99.90;;;;;;6107642;23;20033;-77
2022/09/19 06:53:16;;;;;;;0.70;0.38;;;12.50;99.90;;;;;;6082196;23;20045;-76
2022/09/19 06:55:43;;;;;;;0.65;0.40;;;12.60;99.90;;;;;;6083355;23;20022;-76
2022/09/19 06:58:13;;;;;;;0.65;0.30;;;12.60;99.90;;;;;;6083551;23;20074;-76
2022/09/19 07:00:42;;;;;;;0.30;0.30;;;12.70;99.90;;;;;;6109762;23;20057;-76
2022/09/19 07:03:11;;;;;;;0.55;0.40;;;12.70;99.90;;;;;;6108018;23;20026;-76
2022/09/19 07:05:39;;;;;;;0.95;0.60;;;12.70;99.90;;;;;;6082685;23;20022;-76
2022/09/19 07:08:06;;;;;;;0.50;0.35;;;12.80;99.90;;;;;;6082256;23;20080;-76
2022/09/19 07:10:36;;;;;;;0.30;0.30;;;12.80;99.90;;;;;;6082687;23;20037;-76
2022/09/19 07:13:04;;;;;;;0.93;0.40;;;12.90;99.90;;;;;;6082907;23;20029;-76
2022/09/19 07:15:32;;;;;;;0.60;0.30;;;13.00;99.90;;;;;;6082742;23;20098;-76
2022/09/19 07:17:58;;;;;;;0.50;0.30;;;13.00;99.90;;;;;;6081226;23;20343;-75
2022/09/19 07:20:26;;;;;;;0.80;0.40;;;13.10;99.90;;;;;;6059226;23;20034;-76
2022/09/19 07:23:02;;;;;;;0.90;0.50;;;13.20;99.90;;;;;;6057211;23;20938;-76
2022/09/19 07:25:29;;;;;;;0.63;0.50;;;13.20;99.90;;;;;;6084131;23;20030;-76
2022/09/19 07:28:01;;;;;;;0.50;0.40;;;13.30;99.90;;;;;;6081812;23;20025;-76
2022/09/19 07:30:31;;;;;;;0.82;0.47;;;13.40;99.90;;;;;;6082650;23;20025;-76
2022/09/19 07:32:59;;;;;;;1.45;0.60;;;13.40;99.90;;;;;;6082899;23;20029;-76
2022/09/19 07:35:28;;;;;;;0.60;0.50;;;13.40;99.90;;;;;;6058845;23;20022;-76
2022/09/19 07:38:01;;;;;;;1.17;0.75;;;13.40;99.90;;;;;;6084095;23;20029;-76
2022/09/19 07:40:28;;;;;;;0.95;0.70;;;13.40;99.90;;;;;;6058900;23;20061;-76
2022/09/19 07:43:00;;;;;;;0.88;0.60;;;13.50;99.90;;;;;;6059181;23;20033;-76
2022/09/19 07:45:27;;;;;;;2.43;0.93;;;13.50;99.90;;;;;;6083284;23;20032;-76
2022/09/19 07:48:00;;;;;;;0.55;0.40;;;13.50;99.90;;;;;;6085325;23;20026;-75
2022/09/19 07:50:27;;;;;;;0.50;0.45;;;13.60;99.90;;;;;;6084013;23;20030;-76
2022/09/19 07:53:04;;;;;;;0.70;0.60;;;13.70;99.90;;;;;;6081222;23;20377;-75
2022/09/19 07:55:32;;;;;;;0.98;0.47;;;13.70;99.90;;;;;;6111365;23;20120;-75
2022/09/19 07:57:59;;;;;;;0.60;0.40;;;13.80;99.90;;;;;;6110758;23;20112;-74
2022/09/19 08:00:27;;;;;;;0.93;0.55;;;13.90;99.90;;;;;;6111358;23;20105;-75
2022/09/19 08:02:58;;;;;;;0.68;0.50;;;14.00;99.90;;;;;;6081239;23;20369;-75
2022/09/19 08:05:26;;;;;;;1.00;0.43;;;14.00;99.90;;;;;;6084426;23;20259;-75
2022/09/19 08:07:52;;;;;;;0.30;0.30;;;14.10;99.90;;;;;;6083544;23;20033;-75
2022/09/19 08:10:20;;;;;;;0.38;0.38;;;14.20;99.90;;;;;;6084250;23;20025;-75
2022/09/19 08:12:48;;;;;;;0.70;0.50;;;14.30;99.90;;;;;;6085642;23;20059;-74
2022/09/19 08:15:16;;;;;;;0.60;0.35;;;14.30;99.90;;;;;;6085279;23;20340;-75
2022/09/19 08:17:57;;;;;;;0.65;0.45;;;14.40;99.90;;;;;;6084792;23;20160;-75
2022/09/19 08:20:28;;;;;;;1.10;0.65;;;14.50;99.90;;;;;;6111387;23;20340;-75
2022/09/19 08:22:56;;;;;;;0.70;0.60;;;14.60;99.90;;;;;;6061159;23;20026;-75
2022/09/19 08:25:27;;;;;;;0.77;0.40;;;14.60;99.90;;;;;;6085929;23;20319;-75
2022/09/19 08:27:55;;;;;;;0.70;0.40;;;14.70;99.90;;;;;;6085667;23;20218;-74
2022/09/19 08:30:29;;;;;;;1.15;0.70;;;14.70;99.90;;;;;;6062156;23;20089;-73
2022/09/19 08:32:56;;;;;;;0.82;0.50;;;14.80;99.90;;;;;;6108438;23;20022;-75
2022/09/19 08:35:23;;;;;;;1.02;0.50;;;14.90;99.90;;;;;;6061521;23;20356;-75
2022/09/19 08:37:54;;;;;;;0.70;0.47;;;15.00;99.90;;;;;;6083647;23;20095;-75
2022/09/19 08:40:31;;;;;;;0.40;0.30;;;15.00;99.90;;;;;;6061500;23;20018;-76
2022/09/19 08:43:20;;;;;;;0.30;0.20;;;15.10;99.90;;;;;;6084363;23;20612;-76
2022/09/19 08:46:05;;;;;;;0.52;0.47;;;15.20;99.90;;;;;;6085503;23;20037;-76
2022/09/19 08:48:38;;;;;;;0.40;0.40;;;15.20;99.90;;;;;;6084858;23;20354;-76
2022/09/19 08:51:09;;;;;;;0.98;0.55;;;15.30;99.90;;;;;;6085168;23;20022;-76
2022/09/19 08:53:40;;;;;;;0.38;0.38;;;15.30;99.90;;;;;;6084769;23;20036;-77
2022/09/19 08:56:07;;;;;;;0.63;0.40;;;15.40;99.90;;;;;;6062686;23;20167;-76
2022/09/19 08:58:34;;;;;;;0.35;0.35;;;15.40;99.90;;;;;;6062091;23;20026;-76
2022/09/19 09:01:02;;;;;;;0.20;0.20;;;15.50;99.90;;;;;;6085911;23;20022;-76
2022/09/19 09:03:35;;;;;;;0.38;0.38;;;15.60;99.90;;;;;;6057848;23;20084;-76
2022/09/19 09:06:25;;;;;;;0.30;0.25;;;15.70;99.90;;;;;;6083911;23;20040;-77
2022/09/19 09:09:13;;;;;;;0.30;0.30;;;15.80;99.90;;;;;;6084932;23;20060;-77
2022/09/19 09:12:03;;;;;;;0.30;0.30;;;16.00;99.90;;;;;;6084842;23;20668;-77
2022/09/19 09:14:40;;;;;;;0.32;0.20;;;16.00;99.90;;;;;;6084129;23;20025;-76
2022/09/19 09:17:22;;;;;;;0.75;0.40;;;16.00;99.90;;;;;;6084246;23;20083;-76
2022/09/19 09:20:24;;;;;;;0.98;0.50;;;16.10;99.90;;;;;;6083647;23;20022;-77
2022/09/19 09:23:07;;;;;;;0.82;0.35;;;16.00;99.90;;;;;;6046317;23;20022;-77
2022/09/19 09:25:35;;;;;;;0.52;0.30;;;15.90;99.90;;;;;;6085215;23;20045;-76
2022/09/19 09:28:07;;;;;;;0.57;0.30;;;16.00;99.90;;;;;;6060375;23;20098;-77
2022/09/19 09:30:37;;;;;;;0.85;0.60;;;16.00;99.90;;;;;;6085385;23;20029;-77
2022/09/19 09:33:29;;;;;;;0.30;0.30;;;15.90;99.90;;;;;;6060102;23;20025;-78
2022/09/19 09:36:03;;;;;;;0.68;0.50;;;16.00;99.90;;;;;;6061446;23;20024;-76
2022/09/19 09:38:35;;;;;;;0.68;0.45;;;16.20;99.90;;;;;;6084483;23;20060;-78
2022/09/19 09:41:45;;;;;;;0.28;0.20;;;16.20;99.90;;;;;;6086014;23;20078;-75
2022/09/19 09:44:16;;;;;;;0.50;0.40;;;16.10;99.90;;;;;;6083800;23;20025;-76
2022/09/19 09:47:04;;;;;;;0.50;0.30;;;15.90;99.90;;;;;;6083169;23;20355;-76
2022/09/19 09:49:31;;;;;;;2.05;0.70;;;15.90;99.90;;;;;;6110170;23;20041;-75
2022/09/19 09:52:28;;;;;;;0.25;0.20;;;15.80;99.90;;;;;;6082494;23;20022;-75
2022/09/19 09:58:52;;;;;;;0.60;0.28;;;15.80;99.90;;;;;;6092482;23;20038;-76
2022/09/19 10:04:35;;;;;;;0.17;0.10;;;16.10;99.90;;;;;;6089641;23;20030;-76
2022/09/19 10:07:27;;;;;;;1.20;0.40;;;16.30;99.90;;;;;;6060046;23;20029;-75
2022/09/19 10:10:00;;;;;;;0.28;0.20;;;16.40;99.90;;;;;;6083265;23;20509;-76
2022/09/19 10:12:32;;;;;;;1.65;0.32;;;16.40;99.90;;;;;;6084623;23;20060;-76
2022/09/19 10:15:20;;;;;;;0.30;0.28;;;16.50;99.90;;;;;;6088544;23;20022;-76
2022/09/19 10:18:04;;;;;;;0.55;0.22;;;16.60;99.90;;;;;;6059060;23;20466;-76
2022/09/19 10:20:36;;;;;;;0.20;0.20;;;16.60;99.90;;;;;;6086152;23;20068;-76
2022/09/19 10:23:02;;;;;;;0.75;0.40;;;16.80;99.90;;;;;;6058899;23;20125;-76
2022/09/19 10:25:30;;;;;;;0.35;0.32;;;17.00;99.90;;;;;;6059937;23;20495;-76
2022/09/19 10:28:01;;;;;;;0.20;0.20;;;17.30;99.90;;;;;;6061881;23;20033;-73
2022/09/19 10:30:35;;;;;;;0.63;0.30;;;17.40;99.90;;;;;;6084630;23;20033;-73
2022/09/19 10:33:28;;;;;;;0.60;0.28;;;17.40;99.90;;;;;;6082550;23;20330;-73
2022/09/19 10:35:58;;;;;;;0.60;0.52;;;17.50;99.90;;;;;;6082991;23;20388;-73
2022/09/19 10:38:26;;;;;;;0.30;0.30;;;17.60;99.90;;;;;;6084282;23;20033;-73
2022/09/19 10:40:56;;;;;;;0.20;0.20;;;17.80;99.90;;;;;;6084166;23;20055;-73
2022/09/19 10:43:30;;;;;;;1.73;0.45;;;17.90;99.90;;;;;;6061028;23;20024;-73
2022/09/19 10:46:06;;;;;;;0.93;0.40;;;17.80;99.90;;;;;;6085754;23;20121;-73
2022/09/19 10:48:37;;;;;;;1.08;0.38;;;17.70;99.90;;;;;;6084676;23;20022;-73
2022/09/19 10:51:08;;;;;;;0.55;0.40;;;17.70;99.90;;;;;;6083268;23;20045;-73
2022/09/19 10:53:36;;;;;;;0.55;0.30;;;17.80;99.90;;;;;;6083708;23;20111;-73
2022/09/19 10:56:11;;;;;;;0.45;0.40;;;17.80;99.90;;;;;;6085809;23;20149;-73
2022/09/19 10:58:42;;;;;;;0.52;0.30;;;17.80;99.90;;;;;;6087128;23;20026;-73
2022/09/19 11:01:25;;;;;;;0.73;0.43;;;17.70;99.90;;;;;;6083934;23;20506;-73
2022/09/19 11:04:04;;;;;;;0.93;0.40;;;17.80;99.90;;;;;;6080952;23;20084;-73
2022/09/19 11:06:32;;;;;;;0.98;0.40;;;17.80;99.90;;;;;;6108835;23;20049;-73
2022/09/19 11:08:59;;;;;;;0.70;0.70;;;17.80;99.90;;;;;;6083897;23;20026;-73
2022/09/19 11:11:47;;;;;;;0.60;0.40;;;18.00;99.90;;;;;;6083806;23;20441;-73
2022/09/19 11:14:31;;;;;;;0.35;0.30;;;18.00;99.90;;;;;;6109963;23;20022;-73
2022/09/19 11:17:02;;;;;;;0.45;0.30;;;17.80;99.90;;;;;;6082870;23;20047;-72
2022/09/19 11:19:38;;;;;;;0.98;0.60;;;17.90;99.90;;;;;;6109754;23;20534;-73
2022/09/19 11:22:18;;;;;;;0.80;0.50;;;18.00;99.90;;;;;;6109902;23;20022;-73
2022/09/19 11:24:54;;;;;;;0.38;0.30;;;18.20;99.70;;;;;;6084987;23;20391;-73
2022/09/19 11:27:31;;;;;;;0.50;0.40;;;18.40;99.70;;;;;;6111175;23;20026;-73
2022/09/19 11:30:12;;;;;;;0.20;0.20;;;18.60;99.40;;;;;;6086562;23;20025;-73
2022/09/19 11:33:00;;;;;;;0.88;0.55;;;18.80;99.60;;;;;;6085110;23;20113;-73
2022/09/19 11:35:29;;;;;;;0.32;0.32;;;18.90;99.70;;;;;;6110124;23;20022;-73
2022/09/19 11:37:56;;;;;;;0.35;0.30;;;19.00;99.70;;;;;;6084115;23;20405;-73
2022/09/19 11:40:56;;;;;;;1.30;0.65;;;19.10;99.10;;;;;;6112014;23;20600;-73
2022/09/19 11:44:02;;;;;;;0.30;0.30;;;19.20;98.60;;;;;;6111218;23;20471;-74
2022/09/19 11:46:55;;;;;;;0.52;0.52;;;19.80;98.40;;;;;;6063940;23;20022;-74
2022/09/19 11:49:28;;;;;;;0.80;0.45;;;20.20;98.10;;;;;;6087911;23;20030;-73
2022/09/19 11:52:25;;;;;;;0.63;0.47;;;20.10;98.10;;;;;;6083851;23;20041;-73
2022/09/19 11:55:29;;;;;;;0.77;0.63;;;20.20;97.10;;;;;;6086958;23;20027;-74
2022/09/19 11:58:18;;;;;;;0.70;0.52;;;20.30;97.50;;;;;;6110787;23;20272;-73
2022/09/19 12:01:27;;;;;;;0.40;0.40;;;20.20;97.50;;;;;;6086140;23;20485;-74
2022/09/19 12:04:34;;;;;;;0.95;0.70;;;20.30;96.90;;;;;;6059136;23;20026;-74
2022/09/19 12:07:43;;;;;;;0.47;0.35;;;20.40;96.50;;;;;;6062107;23;20025;-73
2022/09/19 12:10:23;;;;;;;0.77;0.57;;;21.00;96.50;;;;;;6086948;23;20070;-73
2022/09/19 12:13:10;;;;;;;0.75;0.50;;;21.30;96.10;;;;;;6085136;23;20609;-74
2022/09/19 12:15:38;;;;;;;0.80;0.52;;;21.40;95.50;;;;;;6110898;23;20026;-74
2022/09/19 12:18:22;;;;;;;1.50;0.70;;;21.20;96.00;;;;;;6084792;23;20044;-73
2022/09/19 12:20:55;;;;;;;0.52;0.40;;;21.00;95.30;;;;;;6086507;23;20114;-73
2022/09/19 12:26:24;;;;;;;0.30;0.30;;;21.40;95.00;;;;;;6090973;23;20431;-73
2022/09/19 12:29:15;;;;;;;0.30;0.30;;;21.70;95.00;;;;;;6061165;23;20097;-73
2022/09/19 12:31:43;;;;;;;1.13;0.50;;;21.70;94.30;;;;;;6084721;23;20125;-73
2022/09/19 12:34:35;;;;;;;0.60;0.40;;;21.30;94.80;;;;;;6084811;23;20022;-73
2022/09/19 12:37:58;;;;;;;0.63;0.47;;;21.20;94.20;;;;;;6085728;23;20025;-73
2022/09/19 12:40:53;;;;;;;0.22;0.22;;;21.10;94.50;;;;;;5998000;23;20399;-73
2022/09/19 12:43:43;;;;;;;0.82;0.32;;;21.10;94.70;;;;;;6061403;23;20563;-74
2022/09/19 12:46:44;;;;;;;0.43;0.40;;;21.00;94.30;;;;;;6089062;23;20033;-73
2022/09/19 12:49:35;;;;;;;0.77;0.50;;;21.00;94.00;;;;;;6063882;23;20029;-74
2022/09/19 12:52:20;;;;;;;2.03;0.40;;;21.20;94.10;;;;;;6084813;23;20355;-72
2022/09/19 12:55:08;;;;;;;0.40;0.40;;;21.40;94.30;;;;;;6085946;23;20029;-76
2022/09/19 12:57:41;;;;;;;0.30;0.30;;;21.80;94.20;;;;;;6084566;23;20014;-76
2022/09/19 13:00:11;;;;;;;0.65;0.50;;;22.20;93.00;;;;;;6085354;23;20033;-77
2022/09/19 13:02:43;;;;;;;0.30;0.30;;;22.10;93.00;;;;;;6057896;23;20097;-79
2022/09/19 13:05:12;;;;;;;0.30;0.20;;;22.30;93.00;;;;;;6084338;23;20036;-78
2022/09/19 13:07:51;;;;;;;0.52;0.30;;;22.30;92.80;;;;;;6083130;23;20028;-78
2022/09/19 13:10:44;;;;;;;0.30;0.30;;;22.30;92.30;;;;;;6084546;23;20124;-76
2022/09/19 13:13:47;;;;;;;0.88;0.40;;;22.10;93.30;;;;;;6087282;23;20029;-77
2022/09/19 13:16:16;;;;;;;0.63;0.40;;;21.80;93.30;;;;;;6012025;23;20053;-77
2022/09/19 13:24:56;;;;;;;0.32;0.30;;;22.10;93.00;;;;;;6088290;23;20040;-78
2022/09/19 13:27:25;;;;;;;0.47;0.35;;;21.80;93.10;;;;;;6060182;23;20100;-77
2022/09/19 13:29:54;;;;;;;0.30;0.30;;;22.00;92.80;;;;;;6085032;23;20049;-78
2022/09/19 13:32:51;;;;;;;0.50;0.30;;;22.10;92.80;;;;;;6060737;23;20041;-77
2022/09/19 13:35:22;;;;;;;0.43;0.40;;;22.20;92.80;;;;;;6110502;23;20026;-78
2022/09/19 13:37:56;;;;;;;0.50;0.30;;;22.30;92.90;;;;;;6060429;23;20025;-78
2022/09/19 13:40:46;;;;;;;0.82;0.55;;;22.40;92.30;;;;;;6085699;23;20105;-78
2022/09/19 13:43:24;;;;;;;0.32;0.30;;;22.30;92.30;;;;;;6061274;23;20109;-78
2022/09/19 13:46:02;;;;;;;0.40;0.30;;;22.30;92.50;;;;;;6085456;23;20026;-78
2022/09/19 13:48:47;;;;;;;1.08;0.40;;;22.50;92.90;;;;;;6086339;23;20048;-77